CEB657 RPLL-RPVA
Flight info
| Callsign | CEB657 |
|---|---|
| Flight time | 0h 56m |
| Altitude | 35000 |
| Route | IPATA2R IPATA B462 ARREX ARREX2R |
| Aircraft | A320/M-SDE3FGHIRWY/LB1 |
Departure
| Time | 2026-04-26 12:15 |
|---|---|
| Airport | Ninoy Aquino International Airport (RPLL) |
Arrival
| Time | 2026-04-26 13:12 |
|---|---|
| Airport | Daniel Z. Romualdez Airport (RPVA) |
| Time | Latitude | Longitude | Altitude | Speed | Heading |
|---|---|---|---|---|---|
| 2026-04-26 11:44 | 14.51666 | 121.01520 | 69 ft | 0 kts | 44° |
| 2026-04-26 12:01 | 14.51655 | 121.01509 | 59 ft | 4 kts | 45° |
| 2026-04-26 12:01 | 14.51636 | 121.01489 | 59 ft | 4 kts | 48° |
| 2026-04-26 12:01 | 14.51619 | 121.01467 | 61 ft | 4 kts | 57° |
| 2026-04-26 12:02 | 14.51608 | 121.01444 | 64 ft | 4 kts | 91° |
| 2026-04-26 12:02 | 14.51611 | 121.01431 | 62 ft | 0 kts | 135° |
| 2026-04-26 12:06 | 14.51580 | 121.01463 | 70 ft | 13 kts | 134° |
| 2026-04-26 12:06 | 14.51504 | 121.01540 | 69 ft | 13 kts | 135° |
| 2026-04-26 12:07 | 14.51442 | 121.01589 | 62 ft | 10 kts | 174° |
| 2026-04-26 12:07 | 14.51383 | 121.01567 | 63 ft | 7 kts | 166° |
| 2026-04-26 12:07 | 14.51339 | 121.01606 | 69 ft | 12 kts | 135° |
| 2026-04-26 12:07 | 14.51275 | 121.01671 | 63 ft | 14 kts | 135° |
| 2026-04-26 12:08 | 14.51208 | 121.01740 | 69 ft | 9 kts | 135° |
| 2026-04-26 12:08 | 14.51158 | 121.01793 | 61 ft | 11 kts | 135° |
| 2026-04-26 12:08 | 14.51093 | 121.01859 | 69 ft | 15 kts | 135° |
| 2026-04-26 12:08 | 14.51032 | 121.01918 | 62 ft | 10 kts | 152° |
| 2026-04-26 12:09 | 14.50980 | 121.01890 | 69 ft | 9 kts | 233° |
| 2026-04-26 12:09 | 14.50951 | 121.01827 | 62 ft | 13 kts | 244° |
| 2026-04-26 12:09 | 14.50898 | 121.01731 | 63 ft | 15 kts | 240° |
| 2026-04-26 12:09 | 14.50847 | 121.01638 | 60 ft | 17 kts | 240° |
| 2026-04-26 12:10 | 14.50787 | 121.01531 | 60 ft | 17 kts | 240° |
| 2026-04-26 12:10 | 14.50729 | 121.01427 | 66 ft | 16 kts | 240° |
| 2026-04-26 12:10 | 14.50676 | 121.01331 | 66 ft | 14 kts | 240° |
| 2026-04-26 12:10 | 14.50628 | 121.01247 | 64 ft | 15 kts | 240° |
| 2026-04-26 12:11 | 14.50563 | 121.01128 | 64 ft | 22 kts | 240° |
| 2026-04-26 12:11 | 14.50485 | 121.00987 | 61 ft | 23 kts | 240° |
| 2026-04-26 12:11 | 14.50399 | 121.00834 | 67 ft | 26 kts | 240° |
| 2026-04-26 12:11 | 14.50306 | 121.00668 | 65 ft | 28 kts | 240° |
| 2026-04-26 12:12 | 14.50208 | 121.00491 | 60 ft | 29 kts | 240° |
| 2026-04-26 12:12 | 14.50105 | 121.00306 | 67 ft | 30 kts | 239° |
| 2026-04-26 12:12 | 14.50008 | 121.00132 | 65 ft | 26 kts | 242° |
| 2026-04-26 12:12 | 14.49952 | 121.00032 | 61 ft | 18 kts | 240° |
| 2026-04-26 12:13 | 14.49906 | 120.99961 | 69 ft | 7 kts | 214° |
| 2026-04-26 12:13 | 14.49875 | 120.99966 | 67 ft | 0 kts | 148° |
| 2026-04-26 12:13 | 14.49859 | 120.99976 | 69 ft | 7 kts | 150° |
| 2026-04-26 12:14 | 14.49810 | 121.00005 | 65 ft | 9 kts | 138° |
| 2026-04-26 12:14 | 14.49814 | 121.00059 | 68 ft | 8 kts | 60° |
| 2026-04-26 12:14 | 14.49883 | 121.00187 | 67 ft | 51 kts | 60° |
| 2026-04-26 12:14 | 14.50189 | 121.00736 | 66 ft | 119 kts | 60° |
| 2026-04-26 12:15 | 14.50679 | 121.01614 | 167 ft | 158 kts | 62° |
| 2026-04-26 12:15 | 14.51241 | 121.02594 | 878 ft | 152 kts | 60° |
| 2026-04-26 12:15 | 14.51805 | 121.03533 | 1477 ft | 164 kts | 60° |
| 2026-04-26 12:15 | 14.52442 | 121.04594 | 2001 ft | 180 kts | 60° |
| 2026-04-26 12:16 | 14.53122 | 121.05745 | 2522 ft | 196 kts | 59° |
| 2026-04-26 12:16 | 14.53844 | 121.07007 | 3017 ft | 212 kts | 60° |
| 2026-04-26 12:16 | 14.54627 | 121.08370 | 3446 ft | 231 kts | 60° |
| 2026-04-26 12:16 | 14.55340 | 121.09910 | 3982 ft | 247 kts | 78° |
| 2026-04-26 12:17 | 14.55304 | 121.11712 | 4567 ft | 262 kts | 107° |
| 2026-04-26 12:17 | 14.54379 | 121.13353 | 5233 ft | 272 kts | 135° |
| 2026-04-26 12:17 | 14.52865 | 121.14553 | 6019 ft | 277 kts | 146° |
| 2026-04-26 12:17 | 14.51240 | 121.15652 | 6802 ft | 282 kts | 147° |
| 2026-04-26 12:18 | 14.49579 | 121.16750 | 7593 ft | 285 kts | 147° |
| 2026-04-26 12:18 | 14.47894 | 121.17848 | 8397 ft | 288 kts | 147° |
| 2026-04-26 12:18 | 14.46183 | 121.18947 | 9191 ft | 291 kts | 147° |
| 2026-04-26 12:18 | 14.44446 | 121.20052 | 9965 ft | 295 kts | 147° |
| 2026-04-26 12:19 | 14.42667 | 121.21182 | 10469 ft | 308 kts | 147° |
| 2026-04-26 12:19 | 14.40976 | 121.22607 | 10841 ft | 322 kts | 133° |
| 2026-04-26 12:19 | 14.39387 | 121.24319 | 11212 ft | 337 kts | 133° |
| 2026-04-26 12:19 | 14.37752 | 121.26094 | 11792 ft | 344 kts | 133° |
| 2026-04-26 12:20 | 14.36096 | 121.27895 | 12460 ft | 348 kts | 133° |
| 2026-04-26 12:20 | 14.34423 | 121.29715 | 13122 ft | 352 kts | 133° |
| 2026-04-26 12:20 | 14.32730 | 121.31550 | 13766 ft | 356 kts | 133° |
| 2026-04-26 12:20 | 14.31001 | 121.33423 | 14314 ft | 360 kts | 134° |
| 2026-04-26 12:21 | 14.29253 | 121.35312 | 14876 ft | 364 kts | 134° |
| 2026-04-26 12:21 | 14.27996 | 121.36671 | 15261 ft | 366 kts | 134° |
| 2026-04-26 12:21 | 14.26202 | 121.38608 | 15805 ft | 370 kts | 134° |
| 2026-04-26 12:21 | 14.24447 | 121.40505 | 16328 ft | 374 kts | 134° |
| 2026-04-26 12:22 | 14.22638 | 121.42463 | 16861 ft | 378 kts | 134° |
| 2026-04-26 12:22 | 14.20817 | 121.44433 | 17386 ft | 382 kts | 135° |
| 2026-04-26 12:22 | 14.18973 | 121.46424 | 17901 ft | 386 kts | 135° |
| 2026-04-26 12:22 | 14.17110 | 121.48433 | 18375 ft | 390 kts | 135° |
| 2026-04-26 12:23 | 14.15228 | 121.50464 | 18802 ft | 394 kts | 135° |
| 2026-04-26 12:23 | 14.13326 | 121.52516 | 19231 ft | 398 kts | 135° |
| 2026-04-26 12:23 | 14.11407 | 121.54585 | 19663 ft | 402 kts | 135° |
| 2026-04-26 12:23 | 14.09441 | 121.56704 | 19881 ft | 404 kts | 135° |
| 2026-04-26 12:24 | 14.07497 | 121.58801 | 19942 ft | 405 kts | 135° |
| 2026-04-26 12:24 | 14.05555 | 121.60899 | 19945 ft | 404 kts | 135° |
| 2026-04-26 12:24 | 14.03614 | 121.62995 | 19980 ft | 404 kts | 135° |
| 2026-04-26 12:25 | 13.99701 | 121.67212 | 20821 ft | 410 kts | 135° |
| 2026-04-26 12:25 | 13.97719 | 121.69346 | 21281 ft | 413 kts | 135° |
| 2026-04-26 12:25 | 13.95731 | 121.71488 | 21737 ft | 416 kts | 135° |
| 2026-04-26 12:25 | 13.93723 | 121.73653 | 22196 ft | 419 kts | 135° |
| 2026-04-26 12:26 | 13.91703 | 121.75831 | 22658 ft | 422 kts | 135° |
| 2026-04-26 12:26 | 13.89672 | 121.78015 | 23123 ft | 424 kts | 135° |
| 2026-04-26 12:26 | 13.87627 | 121.80213 | 23554 ft | 427 kts | 135° |
| 2026-04-26 12:26 | 13.85582 | 121.82447 | 23915 ft | 429 kts | 133° |
| 2026-04-26 12:27 | 13.83606 | 121.84757 | 24288 ft | 431 kts | 131° |
| 2026-04-26 12:27 | 13.81679 | 121.87129 | 24666 ft | 433 kts | 130° |
| 2026-04-26 12:27 | 13.79774 | 121.89540 | 25026 ft | 435 kts | 130° |
| 2026-04-26 12:27 | 13.77867 | 121.91965 | 25385 ft | 436 kts | 130° |
| 2026-04-26 12:28 | 13.75945 | 121.94385 | 25734 ft | 438 kts | 131° |
| 2026-04-26 12:28 | 13.73998 | 121.96805 | 26091 ft | 440 kts | 131° |
| 2026-04-26 12:28 | 13.72034 | 121.99217 | 26434 ft | 441 kts | 131° |
| 2026-04-26 12:28 | 13.70051 | 122.01633 | 26764 ft | 443 kts | 132° |
| 2026-04-26 12:29 | 13.68058 | 122.04053 | 27084 ft | 444 kts | 132° |
| 2026-04-26 12:29 | 13.66061 | 122.06486 | 27402 ft | 446 kts | 132° |
| 2026-04-26 12:29 | 13.62055 | 122.11383 | 28027 ft | 449 kts | 132° |
| 2026-04-26 12:30 | 13.60038 | 122.13846 | 28330 ft | 451 kts | 132° |
| 2026-04-26 12:30 | 13.58014 | 122.16321 | 28626 ft | 453 kts | 132° |
| 2026-04-26 12:30 | 13.55988 | 122.18797 | 28916 ft | 454 kts | 132° |
| 2026-04-26 12:31 | 13.51903 | 122.23786 | 29486 ft | 458 kts | 132° |
| 2026-04-26 12:31 | 13.49845 | 122.26294 | 29764 ft | 459 kts | 132° |
| 2026-04-26 12:31 | 13.47786 | 122.28807 | 30023 ft | 461 kts | 132° |
| 2026-04-26 12:31 | 13.45718 | 122.31332 | 30248 ft | 462 kts | 132° |
| 2026-04-26 12:32 | 13.43641 | 122.33866 | 30467 ft | 464 kts | 132° |
| 2026-04-26 12:32 | 13.41564 | 122.36398 | 30690 ft | 465 kts | 132° |
| 2026-04-26 12:32 | 13.37385 | 122.41490 | 31123 ft | 467 kts | 132° |
| 2026-04-26 12:33 | 13.35291 | 122.44040 | 31333 ft | 468 kts | 133° |
| 2026-04-26 12:33 | 13.33188 | 122.46597 | 31554 ft | 468 kts | 133° |
| 2026-04-26 12:33 | 13.31067 | 122.49180 | 31855 ft | 467 kts | 133° |
| 2026-04-26 12:33 | 13.28978 | 122.51724 | 32169 ft | 465 kts | 133° |
| 2026-04-26 12:34 | 13.26898 | 122.54254 | 32483 ft | 463 kts | 133° |
| 2026-04-26 12:34 | 13.24796 | 122.56811 | 32808 ft | 462 kts | 133° |
| 2026-04-26 12:34 | 13.22728 | 122.59328 | 33121 ft | 460 kts | 133° |
| 2026-04-26 12:34 | 13.20695 | 122.61805 | 33430 ft | 459 kts | 133° |
| 2026-04-26 12:35 | 13.18673 | 122.64269 | 34203 ft | 444 kts | 133° |
| 2026-04-26 12:35 | 13.16700 | 122.66674 | 34681 ft | 439 kts | 133° |
| 2026-04-26 12:35 | 13.14729 | 122.69067 | 34867 ft | 440 kts | 133° |
| 2026-04-26 12:36 | 13.10737 | 122.73895 | 34932 ft | 445 kts | 133° |
| 2026-04-26 12:36 | 13.06734 | 122.78748 | 34934 ft | 445 kts | 133° |
| 2026-04-26 12:37 | 13.02738 | 122.83599 | 34931 ft | 445 kts | 133° |
| 2026-04-26 12:37 | 12.98743 | 122.88449 | 34931 ft | 445 kts | 133° |
| 2026-04-26 12:38 | 12.94749 | 122.93286 | 34932 ft | 444 kts | 133° |
| 2026-04-26 12:38 | 12.90753 | 122.98120 | 34935 ft | 444 kts | 133° |
| 2026-04-26 12:39 | 12.86758 | 123.02953 | 34931 ft | 444 kts | 133° |
| 2026-04-26 12:39 | 12.82763 | 123.07783 | 34934 ft | 444 kts | 133° |
| 2026-04-26 12:40 | 12.78770 | 123.12609 | 34939 ft | 444 kts | 133° |
| 2026-04-26 12:40 | 12.74777 | 123.17445 | 34940 ft | 444 kts | 133° |
| 2026-04-26 12:41 | 12.70776 | 123.22276 | 34943 ft | 444 kts | 133° |
| 2026-04-26 12:41 | 12.66773 | 123.27101 | 34940 ft | 444 kts | 133° |
| 2026-04-26 12:42 | 12.62773 | 123.31921 | 34951 ft | 444 kts | 133° |
| 2026-04-26 12:42 | 12.58779 | 123.36752 | 34952 ft | 444 kts | 133° |
| 2026-04-26 12:43 | 12.54779 | 123.41576 | 34943 ft | 444 kts | 133° |
| 2026-04-26 12:43 | 12.50778 | 123.46390 | 34949 ft | 444 kts | 133° |
| 2026-04-26 12:44 | 12.46776 | 123.51195 | 34943 ft | 444 kts | 133° |
| 2026-04-26 12:44 | 12.43455 | 123.55194 | 34937 ft | 444 kts | 133° |
| 2026-04-26 12:45 | 12.38784 | 123.60815 | 34635 ft | 443 kts | 133° |
| 2026-04-26 12:45 | 12.36797 | 123.63204 | 34181 ft | 438 kts | 133° |
| 2026-04-26 12:45 | 12.34840 | 123.65575 | 33666 ft | 434 kts | 132° |
| 2026-04-26 12:45 | 12.32918 | 123.67939 | 33106 ft | 431 kts | 132° |
| 2026-04-26 12:46 | 12.31018 | 123.70297 | 32539 ft | 428 kts | 131° |
| 2026-04-26 12:46 | 12.29130 | 123.72649 | 31989 ft | 426 kts | 131° |
| 2026-04-26 12:46 | 12.27253 | 123.74983 | 31454 ft | 424 kts | 131° |
| 2026-04-26 12:46 | 12.25383 | 123.77303 | 30907 ft | 422 kts | 131° |
| 2026-04-26 12:47 | 12.23517 | 123.79607 | 30389 ft | 420 kts | 131° |
| 2026-04-26 12:47 | 12.21657 | 123.81898 | 29863 ft | 418 kts | 131° |
| 2026-04-26 12:47 | 12.19802 | 123.84184 | 29296 ft | 416 kts | 131° |
| 2026-04-26 12:47 | 12.17962 | 123.86450 | 28767 ft | 413 kts | 131° |
| 2026-04-26 12:48 | 12.16135 | 123.88700 | 28269 ft | 409 kts | 131° |
| 2026-04-26 12:48 | 12.14328 | 123.90928 | 27786 ft | 406 kts | 131° |
| 2026-04-26 12:48 | 12.12531 | 123.93145 | 27323 ft | 403 kts | 131° |
| 2026-04-26 12:48 | 12.10751 | 123.95340 | 26860 ft | 400 kts | 131° |
| 2026-04-26 12:49 | 12.08980 | 123.97520 | 26397 ft | 397 kts | 131° |
| 2026-04-26 12:49 | 12.07226 | 123.99680 | 25942 ft | 394 kts | 131° |
| 2026-04-26 12:49 | 12.05484 | 124.01826 | 25494 ft | 391 kts | 130° |
| 2026-04-26 12:49 | 12.03755 | 124.03956 | 25042 ft | 388 kts | 130° |
| 2026-04-26 12:50 | 12.02038 | 124.06072 | 24605 ft | 385 kts | 130° |
| 2026-04-26 12:50 | 12.00335 | 124.08167 | 24179 ft | 382 kts | 130° |
| 2026-04-26 12:50 | 11.98643 | 124.10248 | 23756 ft | 379 kts | 130° |
| 2026-04-26 12:50 | 11.96964 | 124.12310 | 23300 ft | 376 kts | 130° |
| 2026-04-26 12:51 | 11.95300 | 124.14353 | 22820 ft | 373 kts | 130° |
| 2026-04-26 12:51 | 11.93646 | 124.16383 | 22351 ft | 370 kts | 130° |
| 2026-04-26 12:51 | 11.92008 | 124.18392 | 21902 ft | 367 kts | 129° |
| 2026-04-26 12:51 | 11.90381 | 124.20387 | 21453 ft | 364 kts | 129° |
| 2026-04-26 12:52 | 11.88767 | 124.22370 | 21026 ft | 361 kts | 129° |
| 2026-04-26 12:52 | 11.87174 | 124.24335 | 20606 ft | 358 kts | 129° |
| 2026-04-26 12:52 | 11.85591 | 124.26288 | 20185 ft | 356 kts | 129° |
| 2026-04-26 12:52 | 11.83992 | 124.28252 | 19764 ft | 353 kts | 129° |
| 2026-04-26 12:53 | 11.82424 | 124.30173 | 19362 ft | 351 kts | 128° |
| 2026-04-26 12:53 | 11.80863 | 124.32084 | 18965 ft | 349 kts | 128° |
| 2026-04-26 12:53 | 11.79313 | 124.33981 | 18582 ft | 347 kts | 128° |
| 2026-04-26 12:53 | 11.77771 | 124.35868 | 18204 ft | 345 kts | 128° |
| 2026-04-26 12:54 | 11.76244 | 124.37742 | 17780 ft | 342 kts | 128° |
| 2026-04-26 12:54 | 11.74728 | 124.39604 | 17369 ft | 340 kts | 128° |
| 2026-04-26 12:54 | 11.73730 | 124.40828 | 17103 ft | 338 kts | 128° |
| 2026-04-26 12:54 | 11.72230 | 124.42668 | 16713 ft | 336 kts | 128° |
| 2026-04-26 12:55 | 11.70742 | 124.44491 | 16327 ft | 333 kts | 128° |
| 2026-04-26 12:55 | 11.69265 | 124.46302 | 15960 ft | 331 kts | 128° |
| 2026-04-26 12:55 | 11.67799 | 124.48099 | 15602 ft | 328 kts | 128° |
| 2026-04-26 12:55 | 11.66344 | 124.49881 | 15247 ft | 326 kts | 127° |
| 2026-04-26 12:56 | 11.64899 | 124.51653 | 14888 ft | 324 kts | 128° |
| 2026-04-26 12:56 | 11.63462 | 124.53415 | 14542 ft | 322 kts | 127° |
| 2026-04-26 12:56 | 11.62033 | 124.55163 | 14204 ft | 320 kts | 127° |
| 2026-04-26 12:56 | 11.60612 | 124.56901 | 13868 ft | 318 kts | 127° |
| 2026-04-26 12:57 | 11.59202 | 124.58627 | 13491 ft | 316 kts | 127° |
| 2026-04-26 12:57 | 11.57799 | 124.60346 | 13099 ft | 314 kts | 128° |
| 2026-04-26 12:57 | 11.56408 | 124.62051 | 12716 ft | 311 kts | 128° |
| 2026-04-26 12:58 | 11.53653 | 124.65419 | 11962 ft | 307 kts | 128° |
| 2026-04-26 12:58 | 11.52291 | 124.67085 | 11578 ft | 305 kts | 128° |
| 2026-04-26 12:58 | 11.50938 | 124.68740 | 11207 ft | 303 kts | 128° |
| 2026-04-26 12:58 | 11.49468 | 124.70268 | 10834 ft | 302 kts | 140° |
| 2026-04-26 12:59 | 11.47752 | 124.71497 | 10494 ft | 299 kts | 144° |
| 2026-04-26 12:59 | 11.46047 | 124.72672 | 10236 ft | 293 kts | 144° |
| 2026-04-26 12:59 | 11.44374 | 124.73825 | 9824 ft | 289 kts | 144° |
| 2026-04-26 12:59 | 11.42712 | 124.74973 | 9400 ft | 288 kts | 143° |
| 2026-04-26 13:00 | 11.41066 | 124.76115 | 9083 ft | 283 kts | 143° |
| 2026-04-26 13:00 | 11.39469 | 124.77223 | 8870 ft | 274 kts | 143° |
| 2026-04-26 13:00 | 11.37903 | 124.78311 | 8522 ft | 271 kts | 143° |
| 2026-04-26 13:00 | 11.36354 | 124.79388 | 8144 ft | 269 kts | 143° |
| 2026-04-26 13:01 | 11.34811 | 124.80457 | 7765 ft | 267 kts | 143° |
| 2026-04-26 13:01 | 11.33281 | 124.81518 | 7400 ft | 265 kts | 143° |
| 2026-04-26 13:01 | 11.31763 | 124.82571 | 7024 ft | 263 kts | 143° |
| 2026-04-26 13:01 | 11.30255 | 124.83616 | 6654 ft | 261 kts | 143° |
| 2026-04-26 13:02 | 11.29264 | 124.84301 | 6415 ft | 260 kts | 143° |
| 2026-04-26 13:02 | 11.27271 | 124.85677 | 6046 ft | 258 kts | 145° |
| 2026-04-26 13:02 | 11.23851 | 124.86874 | 5689 ft | 262 kts | 165° |
| 2026-04-26 13:03 | 11.22072 | 124.87261 | 5276 ft | 260 kts | 164° |
| 2026-04-26 13:03 | 11.20310 | 124.87651 | 4876 ft | 258 kts | 164° |
| 2026-04-26 13:03 | 11.18560 | 124.88041 | 4474 ft | 257 kts | 164° |
| 2026-04-26 13:03 | 11.16819 | 124.88430 | 4061 ft | 255 kts | 164° |
| 2026-04-26 13:04 | 11.15092 | 124.88816 | 3667 ft | 254 kts | 164° |
| 2026-04-26 13:04 | 11.13371 | 124.89199 | 3265 ft | 252 kts | 164° |
| 2026-04-26 13:04 | 11.11666 | 124.89577 | 2858 ft | 250 kts | 164° |
| 2026-04-26 13:04 | 11.09966 | 124.89956 | 2580 ft | 251 kts | 164° |
| 2026-04-26 13:05 | 11.08259 | 124.90339 | 2542 ft | 252 kts | 164° |
| 2026-04-26 13:05 | 11.06555 | 124.90753 | 2548 ft | 250 kts | 157° |
| 2026-04-26 13:05 | 11.05076 | 124.91621 | 2548 ft | 245 kts | 134° |
| 2026-04-26 13:05 | 11.04066 | 124.92952 | 2550 ft | 238 kts | 114° |
| 2026-04-26 13:06 | 11.03621 | 124.94502 | 2549 ft | 216 kts | 95° |
| 2026-04-26 13:06 | 11.03532 | 124.95950 | 2550 ft | 202 kts | 94° |
| 2026-04-26 13:06 | 11.03441 | 124.97366 | 2550 ft | 194 kts | 93° |
| 2026-04-26 13:06 | 11.03354 | 124.98686 | 2554 ft | 183 kts | 93° |
| 2026-04-26 13:07 | 11.03464 | 124.99962 | 2555 ft | 181 kts | 71° |
| 2026-04-26 13:07 | 11.04167 | 125.01033 | 2509 ft | 186 kts | 43° |
| 2026-04-26 13:07 | 11.05318 | 125.01619 | 2212 ft | 189 kts | 13° |
| 2026-04-26 13:07 | 11.06619 | 125.01709 | 1974 ft | 180 kts | 7° |
| 2026-04-26 13:08 | 11.07799 | 125.01772 | 1867 ft | 160 kts | 7° |
| 2026-04-26 13:08 | 11.08847 | 125.01834 | 1807 ft | 148 kts | 9° |
| 2026-04-26 13:08 | 11.09880 | 125.01904 | 1753 ft | 149 kts | 9° |
| 2026-04-26 13:08 | 11.10907 | 125.01973 | 1758 ft | 147 kts | 10° |
| 2026-04-26 13:09 | 11.11923 | 125.02042 | 1753 ft | 147 kts | 10° |
| 2026-04-26 13:09 | 11.12942 | 125.02112 | 1753 ft | 147 kts | 10° |
| 2026-04-26 13:09 | 11.13955 | 125.02180 | 1676 ft | 143 kts | 9° |
| 2026-04-26 13:09 | 11.14942 | 125.02245 | 1439 ft | 143 kts | 8° |
| 2026-04-26 13:10 | 11.15929 | 125.02311 | 1252 ft | 141 kts | 8° |
| 2026-04-26 13:10 | 11.16910 | 125.02379 | 1054 ft | 141 kts | 6° |
| 2026-04-26 13:10 | 11.17901 | 125.02439 | 866 ft | 144 kts | 7° |
| 2026-04-26 13:10 | 11.18887 | 125.02526 | 648 ft | 141 kts | 8° |
| 2026-04-26 13:11 | 11.19867 | 125.02588 | 384 ft | 141 kts | 8° |
| 2026-04-26 13:11 | 11.20851 | 125.02651 | 214 ft | 141 kts | 6° |
| 2026-04-26 13:11 | 11.21830 | 125.02713 | 51 ft | 141 kts | 6° |
| 2026-04-26 13:11 | 11.22748 | 125.02774 | 17 ft | 109 kts | 4° |
| 2026-04-26 13:12 | 11.23219 | 125.02808 | 14 ft | 41 kts | 4° |
| 2026-04-26 13:12 | 11.23467 | 125.02823 | 16 ft | 31 kts | 2° |
| 2026-04-26 13:12 | 11.23616 | 125.02830 | 17 ft | 11 kts | 358° |
| 2026-04-26 13:12 | 11.23672 | 125.02809 | 17 ft | 8 kts | 342° |
| 2026-04-26 13:13 | 11.23683 | 125.02831 | 17 ft | 6 kts | 149° |
| 2026-04-26 13:13 | 11.23599 | 125.02830 | 17 ft | 16 kts | 186° |
| 2026-04-26 13:13 | 11.23484 | 125.02823 | 16 ft | 18 kts | 183° |
| 2026-04-26 13:13 | 11.23350 | 125.02813 | 16 ft | 21 kts | 184° |
| 2026-04-26 13:14 | 11.23198 | 125.02803 | 14 ft | 23 kts | 184° |
| 2026-04-26 13:14 | 11.23033 | 125.02793 | 15 ft | 25 kts | 184° |
| 2026-04-26 13:14 | 11.22892 | 125.02783 | 15 ft | 26 kts | 183° |
| 2026-04-26 13:14 | 11.22792 | 125.02775 | 16 ft | 8 kts | 197° |
| 2026-04-26 13:15 | 11.22763 | 125.02742 | 16 ft | 5 kts | 240° |
| 2026-04-26 13:15 | 11.22741 | 125.02701 | 16 ft | 8 kts | 231° |
| 2026-04-26 13:15 | 11.22701 | 125.02689 | 16 ft | 5 kts | 187° |
| 2026-04-26 13:15 | 11.22666 | 125.02685 | 16 ft | 4 kts | 204° |
| 2026-04-26 13:16 | 11.22669 | 125.02674 | 18 ft | 2 kts | 290° |
| 2026-04-26 13:16 | 11.22677 | 125.02663 | 18 ft | 1 kts | 308° |
| 2026-04-26 13:16 | 11.22681 | 125.02657 | 14 ft | 1 kts | 307° |
| 2026-04-26 13:16 | 11.22683 | 125.02654 | 15 ft | 0 kts | 308° |
| 2026-04-26 13:17 | 11.22684 | 125.02654 | 15 ft | 0 kts | 308° |